Arctic Bay, Canada
Current Conditions -  °F | °C
As of 8:28 PM on Thursday 20 Nov 2014 (Local Time) from CYIO Reporting Station
Light Snow Light Snow  
Wind Chill: -25°   Ceiling: 700
Heat Index: -8°   Visibility: 9mi
Dew Point: -11°   Wind: 9mph
Humidity: 84%   Direction: 160°SSE
Pressure: 29.21"   Gusts: NA
Location:  73.03°N, 85.17°W
Report Text: CYIO 210228Z AUTO 16008KT 9SM -SN OVC007 M22/M24 A2921 RMK SLP901
Loading
Personal Weather Stations






























Interactive Weather Map New forecast layout! Learn more

10-Day Weather Forecast

Advertisements
Track Severe Weather on mobile